MDT,Max TemperatureF,Mean TemperatureF,Min TemperatureF,Max Dew PointF,MeanDew PointF,Min DewpointF,Max Humidity, Mean Humidity, Min Humidity, Max Sea Level PressureIn, Mean Sea Level PressureIn, Min Sea Level PressureIn, Max VisibilityMiles, Mean VisibilityMiles, Min VisibilityMiles, Max Wind SpeedMPH, Mean Wind SpeedMPH, Max Gust SpeedMPH,PrecipitationIn, CloudCover, Events, WindDirDegrees
2012-10-1,76,57,38,27,26,24,54,35,15,30.20,30.07,30.00,10,10,10,23,7,30,0.00,0,,278
2012-10-2,79,57,34,28,25,21,64,39,14,30.10,29.98,29.88,10,10,10,24,6,32,0.00,0,,272
2012-10-3,79,58,36,28,22,18,54,32,10,30.03,29.95,29.88,10,10,10,29,8,38,0.00,0,,302
2012-10-4,76,55,34,27,22,19,52,33,13,30.13,30.04,29.97,10,10,10,25,8,32,0.00,0,,358
2012-10-5,73,55,36,27,21,14,56,35,14,30.08,29.96,29.86,10,10,10,26,10,44,0.00,0,,293
2012-10-6,69,55,40,23,11,-3,41,24,6,29.95,29.88,29.84,10,10,10,32,10,40,0.00,0,,265
2012-10-7,65,46,27,13,3,-6,39,23,6,30.09,29.99,29.90,10,10,10,24,7,29,0.00,0,,270
2012-10-8,69,46,23,21,9,0,40,25,9,30.17,30.08,29.97,10,10,10,25,8,33,0.00,0,,326
2012-10-9,72,52,31,23,19,15,49,31,12,30.09,30.01,29.91,10,10,10,25,8,31,0.00,0,,270
2012-10-10,73,52,30,28,23,18,63,40,17,30.17,30.05,29.97,10,10,10,16,5,24,0.00,0,,351
2012-10-11,73,53,33,44,28,20,71,44,17,30.11,30.03,29.97,10,10,10,25,5,35,T,2,,87
2012-10-12,63,52,40,48,40,28,86,62,38,30.15,30.00,29.88,10,10,2,31,9,38,0.10,4,Rain-Thunderstorm,275
2012-10-13,60,45,29,36,32,26,82,61,40,30.24,30.09,30.01,10,10,10,23,9,29,T,2,,255
2012-10-14,66,47,27,34,30,26,92,58,24,30.39,30.28,30.20,10,10,10,12,4,15,0.00,0,,331
2012-10-15,71,50,29,32,25,11,85,48,10,30.27,30.13,29.99,10,10,10,21,6,28,0.00,0,,289
2012-10-16,72,50,28,25,22,18,69,42,15,30.06,29.90,29.75,10,10,10,28,10,35,0.00,0,,269
2012-10-17,65,51,37,31,11,-3,38,23,7,30.01,29.84,29.68,10,10,10,37,16,45,0.00,0,,264
2012-10-18,73,49,25,14,8,-1,46,28,9,30.18,30.07,29.93,10,10,10,14,6,20,0.00,0,,59
2012-10-19,72,49,25,19,14,9,53,31,9,30.19,30.05,29.94,10,10,10,22,6,28,0.00,0,,270
2012-10-20,72,49,25,19,13,8,58,34,9,30.06,29.94,29.83,10,10,10,18,6,23,0.00,0,,35
2012-10-21,67,48,28,29,21,11,53,38,22,30.00,29.92,29.85,10,10,10,17,5,24,0.00,0,,25
2012-10-22,65,47,28,30,26,23,72,48,24,30.05,29.95,29.90,10,10,10,15,5,20,0.00,0,,335
2012-10-23,68,51,33,32,25,23,64,42,19,30.05,29.92,29.83,10,10,10,18,6,29,0.00,2,,81
2012-10-24,66,48,30,26,19,7,64,38,11,29.95,29.83,29.69,10,10,9,37,12,49,0.00,0,,275
2012-10-25,52,37,21,17,10,3,62,39,15,30.17,30.07,29.87,10,10,10,26,9,32,0.00,0,,279
2012-10-26,50,34,17,11,-1,-15,56,32,7,30.42,30.28,30.18,10,10,10,15,5,21,0.00,0,,282
2012-10-27,57,35,13,4,1,-4,51,31,10,30.35,30.24,30.09,10,10,10,21,5,26,0.00,0,,342
2012-10-28,64,43,22,21,11,3,47,31,15,30.29,30.18,30.06,10,10,10,21,5,25,0.00,0,,306
2012-10-29,67,46,25,21,16,12,63,38,12,30.30,30.20,30.09,10,10,10,24,6,31,0.00,0,,237
2012-10-30,66,44,22,19,15,9,55,33,11,30.26,30.16,30.06,10,10,10,16,6,21,0.00,0,,344
2012-10-31,67,45,23,20,15,12,60,36,12,30.28,30.17,30.09,10,10,10,13,4,17,0.00,0,,350